Language: 


Des rapports , des résumés tant et plus, au choix de chacun....


Données statistiques de la station
Quotidien Rapport Janvier 13, 2017 Unités:  Métrique    Anglais   les deux
« Précédent Jour
Suivant Jour »
Quotidien Hebdomadaire Mensuel Annuel Actuel
  Haut: Bas: Moyen:
Température: 5.3 °C 0.0 °C 3.3 °C
Pt de rosée: 3.9 °C -0.8 °C 0.8 °C
Humidité: 98 % 0 % 84 %
Vitesse du vent: 38.9 km/h 1.4 km/h 14 km/h
Rafales: 46.5 km/h - -
Vent:- - West
Pression: 1012.1 hPa 0.0 hPa -
Précipitation: 12.7 mm    
Historical Graphs
 
 
Données statistiques pour Janvier 13, 2017
Heure Température Point de rosée Pression Vent Vitesse du vent Refales Humidité Pluie (taux horaire)
00:02 2.2 °C 1.9 °C 989.1 hPa NNE 19.5 km/h 46.0 km/h 98 % 0.0 mm
00:07 2.3 °C 2.1 °C 990.1 hPa North 17.7 km/h 46.0 km/h 98 % 0.0 mm
00:12 2.3 °C 2.1 °C 990.1 hPa North 17.7 km/h 37.8 km/h 98 % 0.0 mm
00:17 2.3 °C 2.1 °C 990.1 hPa WNW 24.8 km/h 46.5 km/h 98 % 0.0 mm
00:22 2.6 °C 2.3 °C 991.1 hPa North 36.0 km/h 46.5 km/h 98 % 0.0 mm
00:27 2.7 °C 2.4 °C 991.1 hPa WNW 37.5 km/h 37.5 km/h 98 % 0.0 mm
00:32 2.7 °C 2.2 °C 991.1 hPa WNW 32.8 km/h 37.5 km/h 97 % 0.0 mm
00:37 2.7 °C 2.3 °C 992.1 hPa NE 10.5 km/h 36.7 km/h 97 % 0.0 mm
00:42 2.7 °C 2.3 °C 992.1 hPa NW 32.0 km/h 36.4 km/h 97 % 0.0 mm
00:47 2.7 °C 2.3 °C 992.1 hPa WNW 13.7 km/h 36.4 km/h 97 % 0.0 mm
00:52 2.7 °C 2.3 °C 993.1 hPa WNW 12.6 km/h 32.0 km/h 97 % 0.0 mm
00:57 2.8 °C 2.4 °C 993.1 hPa WNW 34.6 km/h 34.6 km/h 97 % 0.0 mm
01:02 2.9 °C 2.5 °C 993.1 hPa WSW 20.1 km/h 34.6 km/h 97 % 0.0 mm
01:07 3.1 °C 2.6 °C 993.1 hPa North 21.2 km/h 31.7 km/h 97 % 0.0 mm
01:12 3.1 °C 2.6 °C 993.1 hPa West 20.1 km/h 37.8 km/h 97 % 0.0 mm
01:17 3.1 °C 2.6 °C 993.1 hPa West 14.0 km/h 37.8 km/h 97 % 0.0 mm
01:22 3.1 °C 2.6 °C 994.1 hPa SSW 27.7 km/h 39.3 km/h 97 % 0.0 mm
01:27 2.9 °C 2.4 °C 994.1 hPa NNW 17.7 km/h 39.3 km/h 96 % 0.0 mm
01:32 3.1 °C 2.4 °C 994.1 hPa NNW 16.9 km/h 32.8 km/h 96 % 9.4 mm
01:37 3.1 °C 2.6 °C 995.1 hPa West 19.1 km/h 32.0 km/h 96 % 9.4 mm
01:42 3.1 °C 2.6 °C 995.1 hPa WNW 23.0 km/h 35.6 km/h 96 % 9.4 mm
01:47 3.1 °C 2.6 °C 995.1 hPa WSW 24.8 km/h 35.6 km/h 96 % 9.4 mm
01:52 3.1 °C 2.4 °C 994.1 hPa West 22.7 km/h 37.5 km/h 96 % 9.7 mm
01:57 3.1 °C 2.3 °C 994.1 hPa NW 20.6 km/h 37.5 km/h 95 % 9.7 mm
02:02 0.0 °C 2.3 °C 0.0 hPa West 16.3 km/h 28.3 km/h 0 % 9.7 mm
02:07 3.1 °C 2.3 °C 995.1 hPa West 17.2 km/h 28.5 km/h 95 % 9.7 mm
02:12 3.1 °C 2.2 °C 995.1 hPa WNW 6.9 km/h 28.5 km/h 94 % 9.7 mm
02:17 3.1 °C 2.2 °C 995.1 hPa North 24.8 km/h 32.0 km/h 94 % 9.7 mm
02:22 3.1 °C 2.0 °C 996.2 hPa NW 28.5 km/h 44.2 km/h 93 % 9.7 mm
02:27 3.1 °C 1.9 °C 996.2 hPa NNE 21.2 km/h 44.2 km/h 92 % 9.7 mm
02:32 3.1 °C 1.7 °C 996.2 hPa WSW 17.2 km/h 27.7 km/h 90 % 0.3 mm
02:37 3.1 °C 1.5 °C 997.9 hPa West 38.9 km/h 38.9 km/h 89 % 0.3 mm
02:42 3.1 °C 1.2 °C 997.9 hPa WNW 24.8 km/h 38.9 km/h 87 % 0.3 mm
02:47 3.1 °C 1.2 °C 997.9 hPa West 16.9 km/h 31.4 km/h 87 % 0.3 mm
02:52 3.1 °C 1.0 °C 996.8 hPa WNW 17.2 km/h 31.4 km/h 86 % 0.0 mm
02:57 3.1 °C 1.0 °C 996.8 hPa NNW 24.5 km/h 38.9 km/h 86 % 0.0 mm
03:02 3.1 °C 0.8 °C 996.8 hPa ESE 17.7 km/h 38.9 km/h 85 % 0.3 mm
03:07 3.1 °C 0.8 °C 996.8 hPa West 17.2 km/h 34.3 km/h 85 % 0.3 mm
03:12 3.1 °C 0.8 °C 996.8 hPa WNW 23.0 km/h 28.5 km/h 85 % 0.3 mm
03:17 3.1 °C 0.8 °C 996.8 hPa NNW 19.5 km/h 34.6 km/h 85 % 0.3 mm
03:22 3.1 °C 0.8 °C 997.9 hPa WNW 19.8 km/h 34.6 km/h 85 % 0.3 mm
03:27 2.9 °C 0.5 °C 997.9 hPa West 17.7 km/h 30.2 km/h 84 % 0.3 mm
03:32 2.9 °C 0.5 °C 997.9 hPa WNW 12.6 km/h 29.9 km/h 84 % 0.3 mm
03:37 2.8 °C 0.4 °C 997.9 hPa NE 16.3 km/h 24.5 km/h 84 % 0.3 mm
03:42 2.8 °C 0.4 °C 997.9 hPa WSW 17.7 km/h 32.3 km/h 84 % 0.3 mm
03:47 2.7 °C 0.3 °C 997.9 hPa SE 16.3 km/h 32.3 km/h 84 % 0.3 mm
03:52 2.7 °C 0.3 °C 997.9 hPa WSW 22.7 km/h 28.5 km/h 84 % 0.3 mm
03:57 2.7 °C 0.3 °C 997.9 hPa WNW 16.9 km/h 23.0 km/h 84 % 0.0 mm
04:02 2.7 °C 0.2 °C 997.9 hPa WNW 23.0 km/h 28.5 km/h 84 % 0.0 mm
04:08 2.7 °C 0.2 °C 997.9 hPa SW 13.7 km/h 28.5 km/h 84 % 0.0 mm
04:13 2.7 °C 0.2 °C 997.9 hPa NW 16.6 km/h 27.7 km/h 84 % 0.0 mm
04:18 2.7 °C 0.2 °C 997.9 hPa West 20.1 km/h 28.8 km/h 84 % 0.0 mm
04:23 2.7 °C 0.2 °C 998.9 hPa WNW 15.4 km/h 28.8 km/h 84 % 0.0 mm
04:28 2.6 °C 0.1 °C 998.9 hPa WNW 20.9 km/h 24.8 km/h 84 % 0.0 mm
04:33 2.6 °C 0.1 °C 998.9 hPa WNW 16.9 km/h 24.8 km/h 84 % 0.0 mm
04:38 2.6 °C 0.1 °C 998.9 hPa NNW 16.3 km/h 27.4 km/h 84 % 0.0 mm
04:43 2.6 °C 0.1 °C 998.9 hPa WNW 7.6 km/h 27.4 km/h 84 % 0.0 mm
04:48 2.4 °C 0.0 °C 998.9 hPa WNW 10.5 km/h 22.4 km/h 84 % 0.0 mm
04:53 2.4 °C 0.2 °C 998.9 hPa WSW 9.7 km/h 19.8 km/h 85 % 0.0 mm
04:58 2.3 °C 0.1 °C 998.9 hPa West 10.5 km/h 20.9 km/h 85 % 0.0 mm
05:03 2.3 °C 0.1 °C 998.9 hPa West 10.5 km/h 23.0 km/h 85 % 0.0 mm
05:08 2.3 °C 0.1 °C 998.9 hPa NNW 6.1 km/h 23.0 km/h 85 % 0.0 mm
05:13 2.3 °C 0.1 °C 998.9 hPa WNW 7.9 km/h 23.0 km/h 85 % 0.0 mm
05:18 2.4 °C 0.2 °C 998.9 hPa WSW 10.5 km/h 21.2 km/h 85 % 0.0 mm
05:23 2.4 °C 0.2 °C 999.9 hPa NNW 19.5 km/h 19.5 km/h 85 % 0.0 mm
05:28 2.4 °C 0.2 °C 999.9 hPa WSW 12.6 km/h 24.8 km/h 85 % 0.0 mm
05:33 2.4 °C 0.2 °C 999.9 hPa West 12.6 km/h 24.8 km/h 85 % 0.0 mm
05:38 2.4 °C 0.2 °C 999.9 hPa West 9.7 km/h 21.2 km/h 85 % 0.0 mm
05:43 2.4 °C 0.2 °C 999.9 hPa West 12.6 km/h 21.2 km/h 85 % 0.0 mm
05:48 2.4 °C 0.2 °C 999.9 hPa NNW 15.4 km/h 20.9 km/h 85 % 0.0 mm
05:53 2.4 °C 0.2 °C 999.9 hPa NW 15.8 km/h 21.9 km/h 85 % 0.0 mm
05:58 2.3 °C 0.1 °C 999.9 hPa WNW 20.1 km/h 21.9 km/h 85 % 0.0 mm
06:03 2.4 °C 0.2 °C 999.9 hPa NNW 15.1 km/h 28.5 km/h 85 % 0.0 mm
06:08 2.4 °C 0.2 °C 1000.9 hPa WNW 10.1 km/h 28.5 km/h 85 % 0.0 mm
06:13 2.4 °C 0.2 °C 1000.9 hPa SSW 9.7 km/h 21.2 km/h 85 % 0.0 mm
06:18 2.3 °C 0.1 °C 1000.9 hPa West 9.3 km/h 16.9 km/h 85 % 0.0 mm
06:23 2.3 °C 0.1 °C 999.9 hPa West 7.6 km/h 20.1 km/h 85 % 0.0 mm
06:28 2.3 °C 0.0 °C 999.9 hPa West 4.7 km/h 20.1 km/h 85 % 0.0 mm
06:33 2.3 °C 0.0 °C 999.9 hPa NW 10.5 km/h 17.7 km/h 85 % 0.0 mm
06:38 2.2 °C 0.1 °C 1000.9 hPa WSW 8.7 km/h 16.9 km/h 86 % 0.0 mm
06:43 2.1 °C -0.1 °C 1000.9 hPa West 8.7 km/h 15.1 km/h 86 % 0.0 mm
06:48 2.1 °C -0.1 °C 1000.9 hPa West 6.4 km/h 15.1 km/h 86 % 0.0 mm
06:53 2.1 °C -0.1 °C 1000.9 hPa West 7.2 km/h 15.1 km/h 86 % 0.0 mm
06:58 2.1 °C -0.1 °C 1000.9 hPa West 9.7 km/h 14.0 km/h 86 % 0.0 mm
07:03 2.1 °C 0.1 °C 1000.9 hPa West 9.7 km/h 20.6 km/h 87 % 0.0 mm
07:08 2.1 °C 0.1 °C 1000.9 hPa WSW 12.2 km/h 20.6 km/h 87 % 0.0 mm
07:13 2.1 °C 0.1 °C 1000.9 hPa West 7.9 km/h 17.2 km/h 87 % 0.0 mm
07:18 2.1 °C 0.1 °C 1000.9 hPa NW 16.6 km/h 17.2 km/h 87 % 0.0 mm
07:23 2.1 °C 0.1 °C 1001.9 hPa SSW 5.5 km/h 17.2 km/h 87 % 0.0 mm
07:28 2.1 °C 0.3 °C 1001.9 hPa WNW 12.2 km/h 16.3 km/h 88 % 0.0 mm
07:33 2.1 °C 0.3 °C 1001.9 hPa NW 12.2 km/h 19.5 km/h 88 % 0.0 mm
07:38 2.2 °C 0.4 °C 1001.9 hPa WSW 17.2 km/h 21.6 km/h 88 % 0.0 mm
07:43 2.2 °C 0.4 °C 1001.9 hPa NW 9.3 km/h 21.6 km/h 88 % 0.0 mm
07:48 2.1 °C 0.3 °C 1001.9 hPa West 5.8 km/h 16.9 km/h 88 % 0.0 mm
07:53 2.1 °C 0.3 °C 1002.9 hPa WNW 10.5 km/h 16.9 km/h 88 % 0.0 mm
07:58 2.2 °C 0.4 °C 1002.9 hPa WNW 10.5 km/h 15.8 km/h 88 % 0.0 mm
08:03 2.3 °C 0.4 °C 1002.9 hPa West 13.0 km/h 19.1 km/h 88 % 0.0 mm
08:08 2.3 °C 0.6 °C 1002.9 hPa NNW 9.3 km/h 19.1 km/h 89 % 0.0 mm
08:13 2.3 °C 0.6 °C 1002.9 hPa WNW 9.7 km/h 21.2 km/h 88 % 0.0 mm
08:18 2.3 °C 0.6 °C 1002.9 hPa West 10.5 km/h 21.2 km/h 88 % 0.0 mm
08:23 2.4 °C 0.7 °C 1002.9 hPa West 13.0 km/h 15.8 km/h 88 % 0.0 mm
08:28 2.6 °C 0.8 °C 1002.9 hPa West 16.3 km/h 17.7 km/h 88 % 0.0 mm
08:33 2.6 °C 0.8 °C 1002.9 hPa West 10.5 km/h 24.8 km/h 88 % 0.0 mm
08:38 2.6 °C 0.8 °C 1002.9 hPa North 13.7 km/h 24.8 km/h 88 % 0.0 mm
08:43 2.6 °C 0.8 °C 1002.9 hPa NW 10.5 km/h 17.7 km/h 88 % 0.0 mm
08:48 2.6 °C 0.8 °C 1002.9 hPa WNW 13.7 km/h 17.2 km/h 88 % 0.0 mm
08:53 2.6 °C 0.8 °C 1003.9 hPa NW 13.7 km/h 17.2 km/h 88 % 0.0 mm
08:58 2.6 °C 0.8 °C 1003.9 hPa West 16.9 km/h 16.9 km/h 88 % 0.0 mm
09:03 2.6 °C 0.6 °C 1003.9 hPa WNW 12.2 km/h 16.9 km/h 87 % 0.0 mm
09:08 2.4 °C 0.5 °C 1003.9 hPa North 9.7 km/h 16.9 km/h 87 % 0.0 mm
09:13 2.3 °C 0.4 °C 1003.9 hPa WNW 9.7 km/h 15.8 km/h 87 % 0.0 mm
09:18 2.3 °C 0.3 °C 1003.9 hPa West 7.6 km/h 16.3 km/h 87 % 0.0 mm
09:23 2.2 °C 0.2 °C 1005.0 hPa West 6.9 km/h 16.3 km/h 87 % 0.0 mm
09:28 2.1 °C 0.1 °C 1005.0 hPa West 13.0 km/h 14.0 km/h 87 % 0.0 mm
09:33 2.1 °C 0.1 °C 1005.0 hPa West 12.6 km/h 15.4 km/h 87 % 0.0 mm
09:38 2.1 °C 0.1 °C 1005.0 hPa WNW 16.3 km/h 16.6 km/h 87 % 0.0 mm
09:43 2.1 °C 0.3 °C 1005.0 hPa West 6.1 km/h 17.2 km/h 88 % 0.0 mm
09:48 2.2 °C 0.4 °C 1005.0 hPa West 10.5 km/h 20.1 km/h 88 % 0.0 mm
09:53 2.3 °C 0.4 °C 1005.0 hPa West 15.4 km/h 20.1 km/h 88 % 0.0 mm
09:58 2.3 °C 0.6 °C 1005.0 hPa North 10.5 km/h 19.8 km/h 89 % 0.0 mm
10:03 2.3 °C 0.7 °C 1005.0 hPa WSW 8.7 km/h 24.5 km/h 89 % 0.0 mm
10:08 2.6 °C 0.9 °C 1003.9 hPa West 10.1 km/h 24.5 km/h 89 % 0.0 mm
10:13 2.7 °C 1.1 °C 1003.9 hPa West 12.2 km/h 19.5 km/h 89 % 0.0 mm
10:18 2.9 °C 1.2 °C 1003.9 hPa West 1.4 km/h 19.5 km/h 88 % 0.0 mm
10:23 3.1 °C 1.2 °C 1005.0 hPa West 9.3 km/h 19.5 km/h 88 % 0.0 mm
10:28 3.1 °C 1.2 °C 1005.0 hPa West 6.9 km/h 20.6 km/h 87 % 0.0 mm
10:33 3.2 °C 1.1 °C 1005.0 hPa West 9.7 km/h 20.6 km/h 86 % 0.0 mm
10:38 3.3 °C 1.1 °C 1005.0 hPa WNW 8.7 km/h 19.8 km/h 85 % 0.0 mm
10:43 3.6 °C 1.2 °C 1005.0 hPa WSW 10.1 km/h 19.8 km/h 85 % 0.0 mm
10:48 3.6 °C 1.2 °C 1005.0 hPa West 13.0 km/h 16.9 km/h 84 % 0.0 mm
10:53 3.7 °C 1.1 °C 1003.9 hPa West 13.7 km/h 21.2 km/h 83 % 0.0 mm
10:58 3.8 °C 0.8 °C 1003.9 hPa WNW 9.3 km/h 28.0 km/h 81 % 0.0 mm
11:04 3.9 °C 0.8 °C 1003.9 hPa WNW 5.0 km/h 28.0 km/h 80 % 0.0 mm
11:09 3.9 °C 0.6 °C 1005.0 hPa West 10.8 km/h 20.6 km/h 79 % 0.0 mm
11:14 4.0 °C 0.5 °C 1005.0 hPa WNW 17.7 km/h 22.7 km/h 78 % 0.0 mm
11:19 4.2 °C 0.6 °C 1005.0 hPa NW 13.0 km/h 23.3 km/h 77 % 0.0 mm
11:24 4.3 °C 0.4 °C 1005.0 hPa West 19.5 km/h 28.0 km/h 76 % 0.0 mm
11:29 4.7 °C 0.7 °C 1005.0 hPa West 16.9 km/h 28.0 km/h 75 % 0.0 mm
11:34 4.7 °C 0.7 °C 1005.0 hPa NW 13.0 km/h 21.2 km/h 75 % 0.0 mm
11:39 4.5 °C 0.1 °C 1005.0 hPa West 15.8 km/h 25.6 km/h 73 % 0.0 mm
11:44 4.1 °C -0.5 °C 1005.0 hPa West 10.1 km/h 28.5 km/h 72 % 0.0 mm
11:49 3.9 °C -0.7 °C 1005.0 hPa West 24.5 km/h 28.5 km/h 72 % 0.0 mm
11:54 3.8 °C -0.8 °C 1005.0 hPa West 13.7 km/h 24.8 km/h 72 % 0.0 mm
11:59 3.7 °C -0.7 °C 1005.0 hPa West 14.0 km/h 24.5 km/h 73 % 0.0 mm
12:04 3.7 °C -0.5 °C 1005.0 hPa West 13.0 km/h 22.7 km/h 74 % 0.0 mm
12:09 3.7 °C -0.5 °C 1005.0 hPa West 20.1 km/h 24.8 km/h 74 % 0.0 mm
12:14 3.6 °C -0.6 °C 1005.0 hPa WSW 20.6 km/h 34.3 km/h 74 % 0.0 mm
12:19 3.6 °C -0.7 °C 1005.0 hPa WSW 16.3 km/h 34.3 km/h 74 % 0.0 mm
12:24 3.4 °C -0.6 °C 1005.0 hPa West 16.6 km/h 35.2 km/h 75 % 0.0 mm
12:29 3.2 °C -0.6 °C 1005.0 hPa WNW 15.4 km/h 35.2 km/h 76 % 0.0 mm
12:34 3.1 °C -0.4 °C 1005.0 hPa WNW 16.6 km/h 38.1 km/h 78 % 0.0 mm
12:39 2.7 °C -0.4 °C 1006.0 hPa West 20.6 km/h 38.1 km/h 80 % 0.0 mm
12:44 2.3 °C -0.4 °C 1006.0 hPa West 12.6 km/h 32.0 km/h 82 % 0.0 mm
12:49 2.3 °C -0.2 °C 1006.0 hPa West 11.9 km/h 27.0 km/h 84 % 0.0 mm
12:54 2.2 °C 0.1 °C 1005.0 hPa WSW 16.9 km/h 24.8 km/h 86 % 0.0 mm
12:59 2.2 °C 0.6 °C 1005.0 hPa WNW 20.6 km/h 32.0 km/h 89 % 0.0 mm
13:04 2.2 °C 0.8 °C 1005.0 hPa West 17.2 km/h 32.0 km/h 91 % 0.0 mm
13:09 2.2 °C 1.0 °C 1005.0 hPa West 21.6 km/h 25.3 km/h 92 % 0.0 mm
13:14 2.2 °C 1.2 °C 1005.0 hPa WSW 17.7 km/h 24.5 km/h 93 % 0.0 mm
13:19 2.3 °C 1.4 °C 1005.0 hPa West 20.6 km/h 25.6 km/h 94 % 0.0 mm
13:24 2.3 °C 1.6 °C 1005.0 hPa West 16.3 km/h 25.9 km/h 95 % 0.0 mm
13:29 2.3 °C 1.6 °C 1005.0 hPa WSW 12.2 km/h 25.9 km/h 95 % 0.0 mm
13:34 2.4 °C 1.9 °C 1005.0 hPa WSW 21.2 km/h 27.4 km/h 96 % 0.0 mm
13:39 2.4 °C 1.9 °C 1003.9 hPa West 16.3 km/h 27.4 km/h 96 % 0.0 mm
13:44 2.6 °C 1.8 °C 1003.9 hPa WSW 16.6 km/h 28.0 km/h 95 % 0.0 mm
13:49 2.6 °C 1.8 °C 1003.9 hPa West 13.0 km/h 28.0 km/h 95 % 0.0 mm
13:54 2.7 °C 1.9 °C 1003.9 hPa WSW 23.8 km/h 31.7 km/h 95 % 0.0 mm
13:59 2.6 °C 1.7 °C 1003.9 hPa West 17.2 km/h 31.7 km/h 94 % 0.0 mm
14:04 2.6 °C 1.7 °C 1003.9 hPa West 27.7 km/h 31.4 km/h 94 % 0.0 mm
14:09 2.6 °C 1.7 °C 1003.9 hPa West 22.7 km/h 34.6 km/h 94 % 0.0 mm
14:14 2.6 °C 1.8 °C 1003.9 hPa West 15.1 km/h 34.6 km/h 95 % 0.0 mm
14:19 2.7 °C 1.9 °C 1003.9 hPa West 27.4 km/h 36.7 km/h 95 % 0.0 mm
14:24 2.7 °C 1.9 °C 1003.9 hPa West 27.7 km/h 38.5 km/h 95 % 0.0 mm
14:29 2.6 °C 1.8 °C 1003.9 hPa West 13.0 km/h 38.5 km/h 95 % 0.0 mm
14:34 2.6 °C 1.8 °C 1003.9 hPa West 24.8 km/h 37.0 km/h 95 % 0.0 mm
14:39 2.6 °C 1.8 °C 1002.9 hPa WSW 24.5 km/h 28.8 km/h 95 % 0.0 mm
14:44 2.4 °C 1.7 °C 1002.9 hPa West 18.0 km/h 28.8 km/h 95 % 0.0 mm
14:49 2.3 °C 1.6 °C 1002.9 hPa West 19.5 km/h 28.8 km/h 95 % 0.0 mm
14:54 2.3 °C 1.6 °C 1002.9 hPa West 13.0 km/h 27.7 km/h 95 % 0.0 mm
14:59 2.2 °C 1.4 °C 1002.9 hPa WSW 8.7 km/h 24.8 km/h 95 % 0.0 mm
15:04 2.1 °C 1.3 °C 1002.9 hPa West 17.2 km/h 26.2 km/h 95 % 0.0 mm
15:09 1.9 °C 1.2 °C 1003.9 hPa West 16.9 km/h 26.2 km/h 95 % 0.0 mm
15:14 1.8 °C 1.2 °C 1003.9 hPa WSW 5.5 km/h 23.8 km/h 96 % 0.0 mm
15:19 1.7 °C 1.1 °C 1003.9 hPa West 16.6 km/h 20.9 km/h 96 % 0.0 mm
15:24 1.6 °C 1.0 °C 1003.9 hPa West 17.7 km/h 20.9 km/h 96 % 0.0 mm
15:29 1.4 °C 0.8 °C 1003.9 hPa West 8.7 km/h 21.2 km/h 96 % 0.0 mm
15:34 1.3 °C 0.7 °C 1003.9 hPa WSW 9.7 km/h 21.2 km/h 96 % 0.0 mm
15:39 1.2 °C 0.6 °C 1003.9 hPa West 9.0 km/h 17.7 km/h 96 % 0.0 mm
15:44 1.2 °C 0.6 °C 1003.9 hPa WSW 8.7 km/h 16.3 km/h 96 % 0.0 mm
15:49 1.2 °C 0.6 °C 1003.9 hPa West 17.7 km/h 19.1 km/h 96 % 0.0 mm
15:54 1.2 °C 0.8 °C 1005.0 hPa SSW 8.7 km/h 19.1 km/h 97 % 0.0 mm
15:59 1.4 °C 0.9 °C 1005.0 hPa West 11.9 km/h 17.2 km/h 97 % 0.0 mm
16:04 1.7 °C 1.2 °C 1005.0 hPa WNW 4.7 km/h 15.4 km/h 97 % 0.0 mm
16:09 2.1 °C 1.8 °C 1005.0 hPa West 8.7 km/h 16.3 km/h 98 % 0.0 mm
16:14 3.1 °C 2.8 °C 1005.0 hPa NNW 26.7 km/h 28.5 km/h 98 % 0.0 mm
16:19 3.6 °C 3.2 °C 1005.0 hPa NW 23.0 km/h 28.5 km/h 98 % 0.0 mm
16:24 3.9 °C 3.5 °C 1005.0 hPa NNW 9.7 km/h 24.8 km/h 97 % 0.0 mm
16:29 4.1 °C 3.7 °C 1005.0 hPa WNW 14.8 km/h 26.2 km/h 97 % 0.0 mm
16:34 4.4 °C 3.8 °C 1005.0 hPa NW 9.0 km/h 28.5 km/h 96 % 0.0 mm
16:39 4.6 °C 3.9 °C 1005.0 hPa NNW 16.9 km/h 28.5 km/h 95 % 2.8 mm
16:44 4.7 °C 3.8 °C 1005.0 hPa NNW 19.1 km/h 27.7 km/h 94 % 2.8 mm
16:49 4.8 °C 3.8 °C 1005.0 hPa NNW 12.2 km/h 32.0 km/h 93 % 2.8 mm
16:54 4.8 °C 3.4 °C 1005.0 hPa NNW 19.8 km/h 32.0 km/h 91 % 2.8 mm
16:59 4.9 °C 3.4 °C 1005.0 hPa NNW 14.0 km/h 24.5 km/h 90 % 2.8 mm
17:04 5.0 °C 3.2 °C 1005.0 hPa NW 16.3 km/h 27.0 km/h 88 % 2.8 mm
17:09 5.0 °C 3.0 °C 1005.0 hPa NNW 6.4 km/h 27.0 km/h 87 % 2.8 mm
17:14 5.0 °C 2.7 °C 1005.0 hPa North 9.7 km/h 28.0 km/h 85 % 2.8 mm
17:19 5.1 °C 2.6 °C 1005.0 hPa NNW 16.6 km/h 28.0 km/h 84 % 2.8 mm
17:24 5.2 °C 2.4 °C 1006.0 hPa NNW 17.7 km/h 27.4 km/h 82 % 2.8 mm
17:29 5.2 °C 2.4 °C 1006.0 hPa NNE 6.1 km/h 23.8 km/h 82 % 2.8 mm
17:34 5.2 °C 2.2 °C 1006.0 hPa West 24.5 km/h 29.1 km/h 81 % 2.8 mm
17:39 5.2 °C 2.0 °C 1006.0 hPa North 15.1 km/h 29.1 km/h 80 % 0.0 mm
17:44 5.2 °C 1.8 °C 1006.0 hPa NW 13.0 km/h 38.1 km/h 79 % 0.0 mm
17:49 5.2 °C 1.7 °C 1006.0 hPa North 16.9 km/h 38.1 km/h 78 % 0.0 mm
17:55 5.2 °C 1.7 °C 1007.0 hPa North 10.8 km/h 33.8 km/h 78 % 0.0 mm
18:00 5.2 °C 1.5 °C 1007.0 hPa NNW 13.7 km/h 23.3 km/h 77 % 0.0 mm
18:05 5.2 °C 1.3 °C 1007.0 hPa NNW 4.3 km/h 33.8 km/h 76 % 0.0 mm
18:10 5.2 °C 1.3 °C 1007.0 hPa NNW 10.1 km/h 33.8 km/h 76 % 0.0 mm
18:15 5.2 °C 1.3 °C 1007.0 hPa West 8.7 km/h 24.5 km/h 76 % 0.0 mm
18:20 5.3 °C 1.4 °C 1007.0 hPa NNE 13.7 km/h 25.6 km/h 76 % 0.0 mm
18:25 5.3 °C 1.4 °C 1007.0 hPa NNW 14.0 km/h 30.6 km/h 76 % 0.0 mm
18:30 5.3 °C 1.2 °C 1007.0 hPa North 12.2 km/h 30.6 km/h 75 % 0.0 mm
18:35 5.3 °C 1.2 °C 1007.0 hPa North 20.1 km/h 36.0 km/h 75 % 0.0 mm
18:40 5.3 °C 1.2 °C 1007.0 hPa NNE 9.7 km/h 36.0 km/h 75 % 0.0 mm
18:45 5.3 °C 1.1 °C 1007.0 hPa West 9.0 km/h 23.3 km/h 74 % 0.0 mm
18:50 5.3 °C 1.1 °C 1007.0 hPa NW 17.2 km/h 23.3 km/h 74 % 0.0 mm
18:55 5.3 °C 1.1 °C 1008.0 hPa NW 15.1 km/h 23.3 km/h 74 % 0.0 mm
19:00 5.3 °C 1.1 °C 1008.0 hPa NE 7.6 km/h 23.3 km/h 74 % 0.0 mm
19:05 5.2 °C 0.9 °C 1008.0 hPa NNE 11.1 km/h 20.6 km/h 74 % 0.0 mm
19:10 5.2 °C 0.7 °C 1008.0 hPa NNW 5.8 km/h 24.8 km/h 73 % 0.0 mm
19:15 5.2 °C 0.7 °C 1008.0 hPa NNW 10.5 km/h 25.9 km/h 73 % 0.0 mm
19:20 5.2 °C 0.6 °C 1008.0 hPa NW 9.3 km/h 26.7 km/h 72 % 0.0 mm
19:25 5.2 °C 0.7 °C 1009.0 hPa West 9.0 km/h 26.7 km/h 73 % 0.0 mm
19:30 5.1 °C 0.7 °C 1009.0 hPa North 20.9 km/h 24.8 km/h 73 % 0.0 mm
19:35 5.1 °C 0.7 °C 1009.0 hPa NNW 9.3 km/h 20.9 km/h 73 % 0.0 mm
19:40 5.1 °C 0.7 °C 1009.0 hPa ESE 4.0 km/h 23.3 km/h 73 % 0.0 mm
19:45 5.0 °C 0.6 °C 1009.0 hPa West 10.5 km/h 23.3 km/h 73 % 0.0 mm
19:50 5.0 °C 0.6 °C 1009.0 hPa NNE 5.8 km/h 19.1 km/h 73 % 0.0 mm
19:55 5.0 °C 0.6 °C 1010.0 hPa NNW 17.2 km/h 19.1 km/h 73 % 0.0 mm
20:00 5.0 °C 0.4 °C 1010.0 hPa North 8.7 km/h 30.9 km/h 72 % 0.0 mm
20:05 5.0 °C 0.4 °C 1010.0 hPa WNW 13.7 km/h 31.7 km/h 72 % 0.0 mm
20:10 5.0 °C 0.4 °C 1009.0 hPa NNW 9.3 km/h 31.7 km/h 72 % 0.0 mm
20:15 5.0 °C 0.2 °C 1009.0 hPa North 10.8 km/h 24.8 km/h 71 % 0.0 mm
20:20 5.0 °C 0.2 °C 1009.0 hPa NW 5.5 km/h 24.8 km/h 71 % 0.0 mm
20:25 5.0 °C 0.2 °C 1009.0 hPa West 11.9 km/h 19.1 km/h 71 % 0.0 mm
20:30 5.0 °C 0.2 °C 1009.0 hPa NNW 12.2 km/h 21.2 km/h 71 % 0.0 mm
20:35 5.0 °C 0.2 °C 1009.0 hPa NNW 9.0 km/h 21.2 km/h 71 % 0.0 mm
20:40 5.0 °C 0.0 °C 1009.0 hPa SSW 2.6 km/h 23.3 km/h 70 % 0.0 mm
20:45 5.0 °C 0.0 °C 1009.0 hPa NNW 11.1 km/h 33.5 km/h 70 % 0.0 mm
20:50 4.9 °C -0.3 °C 1009.0 hPa WNW 28.5 km/h 37.5 km/h 69 % 0.0 mm
20:55 4.9 °C -0.3 °C 1010.0 hPa WNW 13.7 km/h 37.5 km/h 69 % 0.0 mm
21:00 4.9 °C -0.3 °C 1010.0 hPa WNW 6.4 km/h 28.5 km/h 69 % 0.0 mm
21:05 4.9 °C -0.3 °C 1010.0 hPa WNW 5.8 km/h 22.4 km/h 69 % 0.0 mm
21:10 4.8 °C -0.4 °C 1010.0 hPa NNW 6.1 km/h 22.4 km/h 69 % 0.0 mm
21:15 4.8 °C -0.2 °C 1010.0 hPa WNW 9.3 km/h 30.2 km/h 70 % 0.0 mm
21:20 4.8 °C -0.2 °C 1010.0 hPa NNW 13.7 km/h 30.2 km/h 70 % 0.0 mm
21:25 4.8 °C -0.2 °C 1010.0 hPa NNE 6.1 km/h 24.5 km/h 70 % 0.0 mm
21:30 4.8 °C -0.2 °C 1010.0 hPa WNW 10.1 km/h 24.5 km/h 70 % 0.0 mm
21:35 4.7 °C -0.1 °C 1010.0 hPa WNW 10.1 km/h 14.0 km/h 71 % 0.0 mm
21:40 4.8 °C -0.2 °C 1010.0 hPa WSW 10.5 km/h 16.3 km/h 70 % 0.0 mm
21:45 4.7 °C -0.1 °C 1010.0 hPa North 6.1 km/h 16.3 km/h 71 % 0.0 mm
21:50 4.7 °C -0.3 °C 1010.0 hPa NNW 7.2 km/h 20.9 km/h 70 % 0.0 mm
21:55 4.7 °C -0.3 °C 1011.1 hPa WSW 9.7 km/h 20.9 km/h 70 % 0.0 mm
22:00 4.7 °C -0.3 °C 1011.1 hPa NW 8.7 km/h 14.0 km/h 70 % 0.0 mm
22:05 4.7 °C -0.3 °C 1011.1 hPa NNW 11.9 km/h 19.8 km/h 70 % 0.0 mm
22:10 4.7 °C -0.3 °C 1011.1 hPa WNW 10.1 km/h 23.3 km/h 70 % 0.0 mm
22:16 4.7 °C -0.3 °C 1011.1 hPa NW 15.8 km/h 23.3 km/h 70 % 0.0 mm
22:21 4.7 °C -0.3 °C 1011.1 hPa NW 12.6 km/h 20.1 km/h 70 % 0.0 mm
22:26 4.7 °C -0.3 °C 1011.1 hPa NNW 9.0 km/h 20.1 km/h 70 % 0.0 mm
22:31 4.7 °C -0.3 °C 1011.1 hPa West 10.5 km/h 19.5 km/h 70 % 0.0 mm
22:36 4.6 °C -0.4 °C 1011.1 hPa ENE 6.1 km/h 19.8 km/h 70 % 0.0 mm
22:41 4.6 °C -0.4 °C 1011.1 hPa West 12.6 km/h 21.2 km/h 70 % 0.0 mm
22:46 4.5 °C -0.5 °C 1011.1 hPa North 6.4 km/h 21.2 km/h 70 % 0.0 mm
22:51 4.5 °C -0.5 °C 1011.1 hPa NNW 5.8 km/h 16.3 km/h 70 % 0.0 mm
22:56 4.5 °C -0.5 °C 1012.1 hPa NNW 11.1 km/h 15.8 km/h 70 % 0.0 mm
23:01 4.5 °C -0.5 °C 1012.1 hPa WNW 9.7 km/h 15.8 km/h 70 % 0.0 mm
23:06 4.5 °C -0.5 °C 1012.1 hPa NNW 12.2 km/h 15.8 km/h 70 % 0.0 mm
23:11 4.5 °C -0.5 °C 1011.1 hPa West 6.1 km/h 21.2 km/h 70 % 0.0 mm
23:16 4.5 °C -0.5 °C 1011.1 hPa NNW 5.0 km/h 21.2 km/h 70 % 0.0 mm
23:21 4.5 °C -0.5 °C 1011.1 hPa North 7.6 km/h 19.1 km/h 70 % 0.0 mm
23:26 4.5 °C -0.5 °C 1010.0 hPa NNW 8.7 km/h 19.1 km/h 70 % 0.0 mm
23:31 4.5 °C -0.5 °C 1010.0 hPa NNW 8.7 km/h 20.9 km/h 70 % 0.0 mm
23:36 4.5 °C -0.5 °C 1010.0 hPa North 5.0 km/h 20.9 km/h 70 % 0.0 mm
23:41 4.4 °C -0.6 °C 1011.1 hPa NE 9.3 km/h 17.2 km/h 70 % 0.0 mm
23:46 4.4 °C -0.6 °C 1011.1 hPa North 11.9 km/h 19.5 km/h 70 % 0.0 mm
23:51 4.4 °C -0.6 °C 1011.1 hPa West 7.6 km/h 21.2 km/h 70 % 0.0 mm
23:56 4.4 °C -0.8 °C 1011.1 hPa WNW 12.6 km/h 28.5 km/h 69 % 0.0 mm
Le Gheer Warneton
Courtoisie de Weather Underground - 2.5 mb

Mise a jour : 17/12/2017 22:17:13
Généré par Cumulus 1.9.4 (1099)